Time;durP1;ratioP1;P1;durP2;ratioP2;P2;SDS_P1;SDS_P2;PMS_P1;PMS_P2;Temp;Humidity;BMP_temperature;BMP_pressure;BME280_temperature;BME280_humidity;BME280_pressure;Samples;Min_cycle;Max_cycle;Signal;HPM_P1;HPM_P2
2023/01/31 00:00:45;;;;;;;16.63;2.28;;;4.90;99.90;;;;;;5024513;28;20045;-46
2023/01/31 00:03:11;;;;;;;11.10;1.73;;;4.90;99.90;;;;;;5021826;28;20413;-42
2023/01/31 00:05:37;;;;;;;17.80;1.65;;;4.90;99.90;;;;;;5032908;28;20041;-46
2023/01/31 00:08:02;;;;;;;7.00;2.28;;;4.90;99.90;;;;;;5014875;28;20030;-42
2023/01/31 00:10:28;;;;;;;9.07;1.55;;;4.80;99.90;;;;;;5025928;28;20037;-44
2023/01/31 00:12:53;;;;;;;8.55;1.58;;;4.80;99.90;;;;;;5024060;28;20025;-42
2023/01/31 00:15:19;;;;;;;16.30;1.58;;;4.80;99.90;;;;;;5023932;28;20496;-41
2023/01/31 00:17:45;;;;;;;19.55;2.50;;;4.70;99.90;;;;;;5020332;28;20041;-41
2023/01/31 00:20:11;;;;;;;17.05;1.90;;;4.70;99.90;;;;;;5025790;28;20021;-42
2023/01/31 00:22:37;;;;;;;20.00;2.28;;;4.70;99.90;;;;;;5024574;28;20405;-44
2023/01/31 00:25:03;;;;;;;19.73;2.50;;;4.60;99.90;;;;;;5027364;28;20022;-43
2023/01/31 00:27:29;;;;;;;12.27;1.63;;;4.60;99.90;;;;;;5016015;28;20500;-42
2023/01/31 00:29:55;;;;;;;7.88;1.75;;;4.60;99.90;;;;;;5025428;28;20017;-43
2023/01/31 00:32:20;;;;;;;17.80;1.92;;;4.50;99.90;;;;;;5032858;28;20095;-44
2023/01/31 00:34:46;;;;;;;9.07;1.58;;;4.50;99.90;;;;;;5031001;28;20385;-41
2023/01/31 00:37:13;;;;;;;11.50;1.30;;;4.50;99.90;;;;;;5019187;28;20037;-41
2023/01/31 00:39:38;;;;;;;13.88;1.80;;;4.40;99.90;;;;;;5033083;28;20036;-42
2023/01/31 00:42:04;;;;;;;14.38;2.00;;;4.40;99.90;;;;;;5031229;28;20495;-44
2023/01/31 00:44:30;;;;;;;12.10;1.73;;;4.40;99.90;;;;;;5014806;28;20095;-42
2023/01/31 00:46:55;;;;;;;5.88;1.40;;;4.40;99.90;;;;;;5013478;28;20029;-40
2023/01/31 00:49:21;;;;;;;14.50;2.63;;;4.30;99.90;;;;;;5013454;28;20425;-44
2023/01/31 00:51:46;;;;;;;8.63;1.35;;;4.30;99.90;;;;;;5024721;28;20064;-40
2023/01/31 00:54:12;;;;;;;13.13;2.10;;;4.30;99.90;;;;;;5032843;28;20469;-38
2023/01/31 00:56:38;;;;;;;14.15;2.10;;;4.20;99.90;;;;;;5029373;28;20131;-41
2023/01/31 00:59:07;;;;;;;12.13;1.48;;;4.20;99.90;;;;;;5033191;28;20096;-38
2023/01/31 01:01:33;;;;;;;6.05;1.35;;;4.20;99.90;;;;;;5017457;28;20055;-39
2023/01/31 01:03:59;;;;;;;6.25;1.40;;;4.20;99.90;;;;;;5032922;28;20056;-39
2023/01/31 01:06:26;;;;;;;10.40;1.50;;;4.10;99.90;;;;;;5032853;28;20017;-39
2023/01/31 01:08:53;;;;;;;10.02;1.50;;;4.10;99.90;;;;;;5025109;28;20022;-39
2023/01/31 01:11:22;;;;;;;9.43;1.38;;;4.10;99.90;;;;;;5027171;28;20033;-40
2023/01/31 01:13:49;;;;;;;18.63;1.80;;;4.10;99.90;;;;;;5029586;28;20548;-39
2023/01/31 01:16:23;;;;;;;14.82;2.38;;;4.00;99.90;;;;;;5029021;28;20036;-39
2023/01/31 01:18:50;;;;;;;18.02;1.83;;;4.10;99.90;;;;;;5021821;28;20044;-39
2023/01/31 01:21:21;;;;;;;3.75;1.02;;;4.10;99.90;;;;;;5025563;28;20021;-38
2023/01/31 01:23:48;;;;;;;14.73;1.70;;;4.10;99.90;;;;;;5026516;28;20558;-40
2023/01/31 01:26:25;;;;;;;14.18;2.45;;;4.10;99.90;;;;;;5023971;28;20037;-39
2023/01/31 01:28:52;;;;;;;11.87;2.00;;;4.10;99.90;;;;;;5018417;28;20478;-40
2023/01/31 01:31:37;;;;;;;10.32;2.13;;;4.10;99.90;;;;;;5012933;28;20700;-37
2023/01/31 01:34:06;;;;;;;9.52;1.40;;;4.00;99.90;;;;;;5012960;28;20368;-34
2023/01/31 01:36:34;;;;;;;18.40;1.83;;;4.10;99.90;;;;;;5023361;28;20036;-37
2023/01/31 01:38:59;;;;;;;15.75;1.67;;;4.10;99.90;;;;;;5031807;28;20104;-56
2023/01/31 01:41:25;;;;;;;7.63;1.58;;;4.10;99.90;;;;;;5016429;28;20117;-44
2023/01/31 01:43:52;;;;;;;9.85;2.45;;;4.20;99.90;;;;;;5022092;28;20064;-42
2023/01/31 01:46:18;;;;;;;15.23;3.13;;;4.20;99.90;;;;;;5035473;28;20025;-41
2023/01/31 01:48:47;;;;;;;11.60;1.95;;;4.30;99.90;;;;;;5018975;28;20500;-43
2023/01/31 01:51:14;;;;;;;8.98;1.63;;;4.30;99.90;;;;;;5016746;28;20401;-43
2023/01/31 01:53:43;;;;;;;14.57;2.08;;;4.40;99.90;;;;;;5012586;28;20532;-41
2023/01/31 01:56:21;;;;;;;14.43;1.65;;;4.50;99.90;;;;;;5017312;28;20083;-44
2023/01/31 01:58:50;;;;;;;12.52;3.65;;;4.50;99.90;;;;;;5032422;28;20036;-41
2023/01/31 02:01:16;;;;;;;4.78;1.15;;;4.60;99.90;;;;;;5031190;28;20032;-43
2023/01/31 02:03:44;;;;;;;8.77;2.00;;;4.70;99.90;;;;;;5030581;28;20029;-41
2023/01/31 02:06:10;;;;;;;14.30;1.67;;;4.70;99.90;;;;;;5025842;28;20021;-43
2023/01/31 02:08:39;;;;;;;13.43;2.90;;;4.80;99.90;;;;;;5016117;28;20385;-42
2023/01/31 02:11:09;;;;;;;14.95;1.75;;;4.80;99.90;;;;;;5027991;28;20378;-43
2023/01/31 02:13:36;;;;;;;16.33;1.90;;;4.80;99.90;;;;;;5028568;28;20029;-42
2023/01/31 02:16:02;;;;;;;14.15;1.70;;;4.80;99.90;;;;;;5031786;28;20030;-44
2023/01/31 02:18:28;;;;;;;11.02;3.15;;;4.90;99.90;;;;;;5032222;28;20420;-44
2023/01/31 02:20:59;;;;;;;13.65;1.92;;;4.90;99.90;;;;;;5032029;28;20040;-42
2023/01/31 02:24:01;;;;;;;22.70;4.82;;;4.90;99.90;;;;;;5019105;28;20509;-45
2023/01/31 02:26:48;;;;;;;5.80;1.50;;;5.00;99.90;;;;;;5016013;28;20049;-46
2023/01/31 02:29:51;;;;;;;10.75;1.98;;;5.00;99.90;;;;;;5021365;28;20486;-44
2023/01/31 02:32:51;;;;;;;17.67;2.17;;;5.10;99.90;;;;;;5035564;28;20025;-43
2023/01/31 02:35:41;;;;;;;18.23;2.55;;;5.10;99.90;;;;;;5031929;28;20117;-43
2023/01/31 02:38:09;;;;;;;13.00;2.28;;;5.10;99.90;;;;;;5025195;28;20124;-43
2023/01/31 02:40:48;;;;;;;9.90;1.58;;;5.10;99.90;;;;;;5015616;28;20475;-42
2023/01/31 02:44:57;;;;;;;15.10;2.13;;;5.20;99.90;;;;;;5015694;28;20086;-42
2023/01/31 02:46:38;;;;;;;11.60;2.47;;;5.20;99.90;;;;;;5015435;28;20022;-47
2023/01/31 02:49:38;;;;;;;14.10;2.13;;;5.20;99.90;;;;;;5021291;28;20079;-39
2023/01/31 02:52:28;;;;;;;8.73;1.63;;;5.20;99.90;;;;;;5014086;28;20034;-44
2023/01/31 02:58:04;;;;;;;16.73;2.22;;;5.20;99.90;;;;;;5027287;28;20041;-42
2023/01/31 03:00:33;;;;;;;14.20;2.50;;;5.20;99.90;;;;;;5028631;28;20032;-57
2023/01/31 03:02:58;;;;;;;24.35;1.95;;;5.30;99.90;;;;;;5026921;28;20422;-41
2023/01/31 03:05:24;;;;;;;13.15;2.15;;;5.20;99.90;;;;;;5033106;28;20026;-43
2023/01/31 03:07:58;;;;;;;12.10;3.10;;;5.20;99.90;;;;;;5033410;28;20029;-39
2023/01/31 03:10:26;;;;;;;17.95;2.05;;;5.30;99.90;;;;;;5030061;28;20033;-42
2023/01/31 03:13:31;;;;;;;18.42;2.80;;;5.30;99.90;;;;;;5026052;28;20034;-46
2023/01/31 03:19:21;;;;;;;10.80;3.03;;;5.30;99.90;;;;;;5015690;28;20057;-38
2023/01/31 03:21:51;;;;;;;26.05;2.83;;;5.30;99.90;;;;;;5018310;28;20064;-41
2023/01/31 03:24:18;;;;;;;17.42;3.15;;;5.30;99.90;;;;;;5034914;28;20056;-38
2023/01/31 03:26:45;;;;;;;10.70;3.20;;;5.30;99.90;;;;;;5024794;28;20026;-36
2023/01/31 03:29:15;;;;;;;7.60;2.42;;;5.30;99.90;;;;;;5032066;28;20025;-41
2023/01/31 03:31:52;;;;;;;20.10;3.10;;;5.40;99.90;;;;;;5031576;28;20504;-44
2023/01/31 03:34:18;;;;;;;14.53;3.77;;;5.40;99.90;;;;;;5027378;28;20025;-49
2023/01/31 03:36:53;;;;;;;14.65;2.72;;;5.40;99.90;;;;;;5014199;28;20501;-45
2023/01/31 03:39:27;;;;;;;13.88;2.97;;;5.40;99.90;;;;;;5029255;28;20084;-45
2023/01/31 03:42:35;;;;;;;16.70;3.15;;;5.40;99.90;;;;;;5034186;28;20030;-44
2023/01/31 03:45:35;;;;;;;19.15;2.30;;;5.40;99.90;;;;;;4994275;28;20038;-43
2023/01/31 03:48:05;;;;;;;15.35;3.70;;;5.40;99.90;;;;;;5007986;28;20433;-46
2023/01/31 03:50:37;;;;;;;12.18;2.50;;;5.40;99.90;;;;;;5007580;28;20037;-51
2023/01/31 03:53:24;;;;;;;19.92;3.20;;;5.40;99.90;;;;;;5020659;28;20055;-37
2023/01/31 03:56:08;;;;;;;17.02;2.72;;;5.40;99.90;;;;;;5034014;28;20030;-41
2023/01/31 03:58:40;;;;;;;13.68;2.95;;;5.40;99.90;;;;;;5033939;28;20124;-37
2023/01/31 04:01:08;;;;;;;16.10;5.25;;;5.30;99.90;;;;;;5032558;28;20497;-39
2023/01/31 04:03:52;;;;;;;10.63;2.88;;;5.30;99.90;;;;;;5033169;28;20076;-36
2023/01/31 04:06:17;;;;;;;25.48;3.20;;;5.20;99.90;;;;;;5033876;28;20036;-37
2023/01/31 04:08:43;;;;;;;15.60;3.10;;;5.20;99.90;;;;;;5032568;28;20029;-39
2023/01/31 04:11:12;;;;;;;18.23;4.43;;;5.20;99.90;;;;;;5027954;28;20033;-39
2023/01/31 04:13:38;;;;;;;14.52;3.10;;;5.30;99.90;;;;;;5016278;28;20553;-39
2023/01/31 04:16:04;;;;;;;18.60;3.15;;;5.30;99.90;;;;;;5013841;28;20034;-37
2023/01/31 04:18:29;;;;;;;19.40;3.40;;;5.20;99.90;;;;;;5027796;28;20029;-39
2023/01/31 04:20:55;;;;;;;14.25;4.95;;;5.30;99.90;;;;;;5033535;28;20033;-42
2023/01/31 04:23:21;;;;;;;16.13;3.13;;;5.30;99.90;;;;;;5032360;28;20030;-36
2023/01/31 04:25:46;;;;;;;24.38;4.38;;;5.30;99.90;;;;;;5033471;28;20053;-38
2023/01/31 04:28:12;;;;;;;12.75;3.92;;;5.30;99.90;;;;;;5030295;28;20036;-38
2023/01/31 04:30:38;;;;;;;17.33;3.78;;;5.30;99.90;;;;;;5025743;28;20048;-41
2023/01/31 04:33:03;;;;;;;16.42;3.30;;;5.50;99.90;;;;;;5032673;28;20505;-36
2023/01/31 04:35:29;;;;;;;10.80;3.25;;;5.40;99.90;;;;;;5029387;28;20071;-38
2023/01/31 04:37:54;;;;;;;20.10;3.80;;;5.50;99.90;;;;;;5026498;28;20496;-38
2023/01/31 04:40:20;;;;;;;29.70;3.60;;;5.50;99.90;;;;;;5027159;28;20379;-37
2023/01/31 04:42:46;;;;;;;16.70;4.93;;;5.60;99.90;;;;;;5021904;28;20466;-39
2023/01/31 04:45:12;;;;;;;16.55;3.42;;;5.60;99.90;;;;;;5025164;28;20125;-39
2023/01/31 04:47:37;;;;;;;13.20;3.63;;;5.60;99.90;;;;;;5027629;28;20029;-38
2023/01/31 04:50:04;;;;;;;22.23;4.28;;;5.60;99.90;;;;;;5030221;28;20021;-43
2023/01/31 04:52:29;;;;;;;28.98;4.40;;;5.70;99.90;;;;;;5031468;28;20087;-36
2023/01/31 04:54:55;;;;;;;13.00;3.85;;;5.60;99.90;;;;;;5032755;28;20026;-48
2023/01/31 04:57:21;;;;;;;26.45;4.50;;;5.70;99.90;;;;;;5032247;28;20057;-47
2023/01/31 04:59:46;;;;;;;21.05;4.30;;;5.70;99.90;;;;;;5018877;28;20025;-42
2023/01/31 05:02:13;;;;;;;16.55;4.10;;;5.70;99.90;;;;;;5032748;28;20056;-46
2023/01/31 05:04:39;;;;;;;17.80;3.70;;;5.70;99.90;;;;;;5033210;28;20555;-46
2023/01/31 05:07:05;;;;;;;27.15;4.25;;;5.70;99.90;;;;;;5031855;28;20037;-44
2023/01/31 05:09:30;;;;;;;17.75;3.80;;;5.70;99.90;;;;;;5023622;28;20025;-44
2023/01/31 05:11:56;;;;;;;18.20;4.90;;;5.80;99.90;;;;;;5033135;28;20128;-42
2023/01/31 05:14:22;;;;;;;28.98;4.50;;;5.80;99.90;;;;;;5031344;28;20033;-42
2023/01/31 05:16:47;;;;;;;24.10;4.95;;;5.80;99.90;;;;;;5033099;28;20362;-44
2023/01/31 05:19:14;;;;;;;21.38;4.80;;;5.80;99.90;;;;;;5024287;28;20030;-41
2023/01/31 05:21:57;;;;;;;18.05;3.13;;;5.80;99.90;;;;;;5028159;28;20537;-43
2023/01/31 05:24:28;;;;;;;15.43;4.78;;;5.90;99.90;;;;;;5013664;28;20493;-40
2023/01/31 05:26:58;;;;;;;18.40;3.88;;;5.90;99.90;;;;;;5020444;28;20057;-44
2023/01/31 05:29:25;;;;;;;15.27;3.58;;;5.90;99.90;;;;;;5029814;28;22423;-41
2023/01/31 05:31:52;;;;;;;13.55;3.90;;;5.90;99.90;;;;;;5013182;28;20485;-41
2023/01/31 05:34:18;;;;;;;16.73;4.38;;;5.90;99.90;;;;;;5031161;28;20030;-40
2023/01/31 05:36:43;;;;;;;21.45;4.78;;;5.90;99.90;;;;;;5028813;28;20057;-42
2023/01/31 05:39:09;;;;;;;25.35;4.72;;;5.90;99.90;;;;;;5013058;28;20030;-43
2023/01/31 05:41:35;;;;;;;19.05;4.53;;;6.00;99.90;;;;;;5029998;28;20095;-40
2023/01/31 05:44:00;;;;;;;15.65;3.55;;;5.90;99.90;;;;;;5031658;28;20017;-43
2023/01/31 05:46:26;;;;;;;16.85;4.25;;;6.00;99.90;;;;;;5013484;28;20026;-41
2023/01/31 05:48:52;;;;;;;14.15;4.90;;;6.00;99.90;;;;;;5012728;28;20109;-60
2023/01/31 05:51:17;;;;;;;26.33;4.13;;;6.00;99.90;;;;;;5020938;28;20428;-40
2023/01/31 05:53:43;;;;;;;23.05;5.38;;;6.10;99.90;;;;;;5016360;28;20093;-42
2023/01/31 05:56:09;;;;;;;18.60;3.30;;;6.00;99.90;;;;;;5017002;28;20026;-38
2023/01/31 05:58:34;;;;;;;17.08;4.32;;;6.10;99.90;;;;;;5031580;28;20112;-35
2023/01/31 06:01:00;;;;;;;16.73;3.72;;;6.10;99.90;;;;;;5029817;28;20025;-37
2023/01/31 06:03:26;;;;;;;19.33;4.13;;;6.10;99.90;;;;;;5033115;28;20471;-40
2023/01/31 06:05:52;;;;;;;15.45;3.40;;;6.20;99.90;;;;;;5025276;28;20076;-45
2023/01/31 06:08:17;;;;;;;18.55;3.83;;;6.20;99.90;;;;;;5026620;28;20030;-50
2023/01/31 06:10:43;;;;;;;22.95;3.65;;;6.20;99.90;;;;;;5035971;28;20037;-49
2023/01/31 06:13:09;;;;;;;11.27;3.85;;;6.20;99.90;;;;;;5033137;28;20504;-40
2023/01/31 06:15:36;;;;;;;14.40;3.42;;;6.20;99.90;;;;;;5036100;28;20130;-42
2023/01/31 06:18:02;;;;;;;23.70;4.40;;;6.20;99.90;;;;;;5023594;28;20489;-36
2023/01/31 06:20:28;;;;;;;25.42;3.75;;;6.20;99.90;;;;;;5015926;28;20030;-40
2023/01/31 06:22:54;;;;;;;20.77;3.70;;;6.10;99.90;;;;;;5027903;28;20028;-38
2023/01/31 06:25:20;;;;;;;25.23;3.63;;;6.20;99.90;;;;;;5035607;28;20053;-40
2023/01/31 06:27:45;;;;;;;13.80;3.80;;;6.20;99.90;;;;;;5035525;28;20038;-35
2023/01/31 06:30:11;;;;;;;23.20;3.22;;;6.20;99.90;;;;;;5018747;28;20026;-34
2023/01/31 06:32:37;;;;;;;23.05;3.63;;;6.20;99.90;;;;;;5027846;28;20465;-38
2023/01/31 06:35:04;;;;;;;20.52;3.88;;;6.20;99.90;;;;;;5035378;28;20083;-34
2023/01/31 06:37:29;;;;;;;15.98;3.20;;;6.20;99.90;;;;;;5032957;28;20029;-39
2023/01/31 06:39:55;;;;;;;17.35;3.00;;;6.20;99.90;;;;;;5033773;28;20028;-36
2023/01/31 06:42:21;;;;;;;17.60;2.97;;;6.30;99.90;;;;;;5035093;28;20083;-35
2023/01/31 06:44:46;;;;;;;14.25;2.80;;;6.30;99.90;;;;;;5034896;28;20037;-36
2023/01/31 06:47:13;;;;;;;22.40;3.13;;;6.40;99.90;;;;;;5030790;28;20544;-35
2023/01/31 06:49:39;;;;;;;17.48;3.53;;;6.40;99.90;;;;;;5035281;28;20508;-36
2023/01/31 06:52:04;;;;;;;23.38;4.20;;;6.40;99.90;;;;;;5033723;28;20132;-38
2023/01/31 06:54:30;;;;;;;14.68;3.88;;;6.40;99.90;;;;;;5031455;28;20402;-40
2023/01/31 06:56:56;;;;;;;24.17;3.47;;;6.40;99.90;;;;;;5028570;28;20455;-38
2023/01/31 06:59:21;;;;;;;12.38;2.90;;;6.40;99.90;;;;;;5015268;28;20029;-39
2023/01/31 07:01:47;;;;;;;24.65;3.88;;;6.40;99.90;;;;;;5018205;28;20124;-36
2023/01/31 07:04:13;;;;;;;16.25;3.58;;;6.40;99.90;;;;;;5034786;28;20058;-38
2023/01/31 07:06:39;;;;;;;31.65;4.63;;;6.30;99.90;;;;;;5034964;28;20040;-38
2023/01/31 07:09:04;;;;;;;18.85;3.17;;;6.30;99.90;;;;;;5032574;28;20040;-37
2023/01/31 07:11:30;;;;;;;17.48;4.38;;;6.30;99.90;;;;;;5020535;28;20107;-37
2023/01/31 07:13:56;;;;;;;24.50;4.05;;;6.30;99.90;;;;;;5025923;28;20030;-37
2023/01/31 07:16:24;;;;;;;22.80;3.40;;;6.30;99.90;;;;;;5015017;28;20029;-38
2023/01/31 07:18:54;;;;;;;23.70;2.97;;;6.30;99.90;;;;;;5014905;28;20113;-37
2023/01/31 07:21:20;;;;;;;15.88;3.38;;;6.30;99.90;;;;;;5014935;28;20498;-40
2023/01/31 07:23:46;;;;;;;26.90;4.00;;;6.40;99.90;;;;;;5018894;28;20026;-48
2023/01/31 07:26:12;;;;;;;17.90;3.45;;;6.30;99.90;;;;;;5034284;28;20535;-43
2023/01/31 07:28:38;;;;;;;24.85;4.53;;;6.40;99.90;;;;;;5034643;28;20092;-41
2023/01/31 07:31:05;;;;;;;12.18;3.22;;;6.40;99.90;;;;;;5026963;28;20030;-45
2023/01/31 07:33:32;;;;;;;21.27;3.67;;;6.40;99.90;;;;;;5033479;28;20030;-42
2023/01/31 07:35:59;;;;;;;28.33;4.00;;;6.50;99.90;;;;;;5033117;28;20030;-45
2023/01/31 07:38:25;;;;;;;16.10;3.13;;;6.50;99.90;;;;;;5013884;28;20037;-43
2023/01/31 07:40:50;;;;;;;18.63;3.20;;;6.50;99.90;;;;;;5029765;28;20489;-44
2023/01/31 07:43:16;;;;;;;13.52;3.05;;;6.50;99.90;;;;;;5031334;28;20048;-45
2023/01/31 07:45:42;;;;;;;13.48;2.15;;;6.50;99.90;;;;;;5027193;28;20025;-43
2023/01/31 07:48:08;;;;;;;17.75;3.42;;;6.60;99.90;;;;;;5044013;28;20078;-45
2023/01/31 07:50:34;;;;;;;16.35;3.08;;;6.60;99.90;;;;;;5023611;28;20061;-48
2023/01/31 07:52:59;;;;;;;15.43;2.95;;;6.70;99.90;;;;;;5017598;28;20022;-44
2023/01/31 07:55:25;;;;;;;15.48;3.05;;;6.70;99.90;;;;;;5034472;28;20033;-46
2023/01/31 07:57:51;;;;;;;14.85;3.45;;;6.80;99.90;;;;;;5027203;28;20031;-55
2023/01/31 08:05:46;;;;;;;17.95;2.17;;;6.80;99.90;;;;;;5033038;28;20037;-64
2023/01/31 08:08:12;;;;;;;21.13;4.07;;;6.90;99.90;;;;;;5025553;28;20029;-46
2023/01/31 08:10:38;;;;;;;16.33;3.22;;;6.90;99.90;;;;;;5021951;28;20042;-41
2023/01/31 08:13:05;;;;;;;14.27;3.08;;;6.90;99.90;;;;;;5029777;28;20037;-47
2023/01/31 08:15:31;;;;;;;23.65;3.17;;;6.90;99.90;;;;;;5030730;28;20061;-43
2023/01/31 08:17:57;;;;;;;25.10;3.70;;;6.90;99.90;;;;;;5033511;28;20029;-41
2023/01/31 08:20:22;;;;;;;19.88;4.20;;;6.80;99.90;;;;;;5032267;28;20026;-41
2023/01/31 08:22:48;;;;;;;14.18;2.80;;;6.80;99.90;;;;;;5033064;28;20021;-38
2023/01/31 08:25:14;;;;;;;20.45;2.45;;;6.80;99.90;;;;;;5031118;28;20025;-39
2023/01/31 08:27:39;;;;;;;7.07;2.15;;;6.80;99.90;;;;;;5030494;28;20029;-37
2023/01/31 08:30:06;;;;;;;22.70;3.72;;;6.80;99.90;;;;;;5027117;28;20021;-37
2023/01/31 08:32:32;;;;;;;24.13;3.45;;;6.80;99.90;;;;;;5015421;28;20072;-41
2023/01/31 08:34:57;;;;;;;7.65;3.25;;;6.80;99.90;;;;;;5017143;28;20393;-46
2023/01/31 08:37:23;;;;;;;14.02;2.75;;;6.80;99.90;;;;;;5016726;28;20379;-44
2023/01/31 08:39:48;;;;;;;7.55;2.10;;;6.80;99.90;;;;;;5012060;28;20038;-42
2023/01/31 08:42:14;;;;;;;16.23;3.25;;;6.90;99.90;;;;;;5015684;28;20018;-43
2023/01/31 08:44:40;;;;;;;14.48;2.80;;;6.90;99.90;;;;;;5023134;28;20520;-37
2023/01/31 08:47:06;;;;;;;12.20;2.58;;;6.90;99.90;;;;;;5028055;28;20026;-47
2023/01/31 08:49:35;;;;;;;11.85;2.83;;;6.90;99.90;;;;;;5026377;28;20025;-44
2023/01/31 08:52:00;;;;;;;26.23;3.72;;;6.90;99.90;;;;;;5026693;28;20033;-45
2023/01/31 08:54:26;;;;;;;20.25;3.13;;;7.00;99.90;;;;;;5024913;28;20402;-42
2023/01/31 08:56:51;;;;;;;21.25;2.83;;;7.00;99.90;;;;;;5023596;28;20026;-42
2023/01/31 08:59:17;;;;;;;14.00;2.70;;;7.10;99.90;;;;;;5020068;28;20026;-48
2023/01/31 09:01:45;;;;;;;16.00;2.50;;;7.20;99.90;;;;;;5014881;28;20113;-42
2023/01/31 09:04:11;;;;;;;20.40;3.42;;;7.30;99.90;;;;;;5027213;28;20095;-48
2023/01/31 09:06:36;;;;;;;18.75;3.58;;;7.20;99.90;;;;;;5032126;28;20025;-42
2023/01/31 09:09:02;;;;;;;24.40;3.55;;;7.20;99.90;;;;;;5032180;28;20037;-45
2023/01/31 09:11:29;;;;;;;12.98;2.67;;;7.10;99.90;;;;;;5027979;28;20034;-55
2023/01/31 09:13:55;;;;;;;13.13;2.95;;;7.10;99.90;;;;;;5016507;28;20331;-42
2023/01/31 09:16:21;;;;;;;9.93;3.03;;;7.10;99.90;;;;;;5031218;28;20478;-37
2023/01/31 09:18:46;;;;;;;14.68;2.65;;;7.20;99.90;;;;;;5021224;28;20028;-38
2023/01/31 09:21:14;;;;;;;18.45;3.10;;;7.30;99.90;;;;;;5014525;28;20104;-37
2023/01/31 09:23:40;;;;;;;17.15;4.40;;;7.30;99.90;;;;;;5030448;28;20017;-34
2023/01/31 09:26:06;;;;;;;11.00;2.28;;;7.20;99.90;;;;;;5032860;28;20497;-37
2023/01/31 09:28:32;;;;;;;9.35;2.35;;;7.30;99.90;;;;;;5026436;28;20026;-41
2023/01/31 09:31:03;;;;;;;16.55;2.60;;;7.40;99.90;;;;;;5027029;28;20022;-42
2023/01/31 09:33:31;;;;;;;12.73;3.05;;;7.40;99.90;;;;;;5012682;28;20482;-41
2023/01/31 09:36:00;;;;;;;9.15;2.40;;;7.40;99.90;;;;;;5018256;28;20496;-40
2023/01/31 09:38:25;;;;;;;;;;;7.50;99.90;;;;;;5021521;28;20018;-41
2023/01/31 09:40:52;;;;;;;17.50;3.08;;;7.60;99.90;;;;;;5033821;28;19967;-40
2023/01/31 09:43:22;;;;;;;19.95;2.38;;;7.60;99.90;;;;;;5025543;28;20100;-40
2023/01/31 09:45:49;;;;;;;14.27;3.53;;;7.50;99.90;;;;;;5016769;28;20030;-52
2023/01/31 09:48:21;;;;;;;14.20;2.55;;;7.50;99.90;;;;;;5023283;28;20105;-37
2023/01/31 09:50:54;;;;;;;23.48;3.65;;;7.50;99.90;;;;;;5023575;28;20497;-39
2023/01/31 09:53:23;;;;;;;15.05;2.88;;;7.60;99.90;;;;;;5033660;28;20374;-41
2023/01/31 09:56:03;;;;;;;22.92;2.95;;;7.60;99.90;;;;;;5030772;28;20084;-39
2023/01/31 09:59:11;;;;;;;25.38;2.63;;;7.60;99.90;;;;;;5023267;28;20543;-39
2023/01/31 10:02:04;;;;;;;21.98;3.22;;;7.70;99.90;;;;;;5017518;28;20030;-50
2023/01/31 10:04:57;;;;;;;19.38;2.92;;;7.80;99.90;;;;;;5015281;28;20473;-42
2023/01/31 10:07:26;;;;;;;15.90;2.78;;;7.90;99.90;;;;;;5034701;28;20031;-45
2023/01/31 10:10:07;;;;;;;13.68;3.88;;;7.90;99.90;;;;;;5035953;28;20540;-46
2023/01/31 10:12:44;;;;;;;10.07;3.33;;;8.00;99.90;;;;;;5034661;28;20033;-43
2023/01/31 10:15:32;;;;;;;12.95;2.75;;;8.00;99.90;;;;;;5034911;28;20380;-45
2023/01/31 10:18:04;;;;;;;12.50;2.15;;;8.00;99.90;;;;;;5032374;28;20448;-40
2023/01/31 10:20:30;;;;;;;17.23;2.50;;;8.10;99.90;;;;;;5022277;28;20032;-48
2023/01/31 10:23:18;;;;;;;15.50;2.58;;;8.00;99.90;;;;;;5025974;28;20017;-43
2023/01/31 10:25:58;;;;;;;11.05;2.88;;;8.10;99.90;;;;;;5034958;28;20033;-44
2023/01/31 10:28:34;;;;;;;14.00;2.67;;;8.20;99.90;;;;;;5033668;28;20045;-44
2023/01/31 10:31:31;;;;;;;19.05;2.70;;;8.20;99.90;;;;;;5031645;28;20034;-45
2023/01/31 10:34:28;;;;;;;17.20;2.20;;;8.30;99.90;;;;;;5024247;28;20055;-42
2023/01/31 10:37:04;;;;;;;;;;;8.40;99.90;;;;;;5024570;28;20025;-45
2023/01/31 10:39:51;;;;;;;8.25;2.17;;;8.40;99.90;;;;;;5031179;28;19916;-49
2023/01/31 10:42:37;;;;;;;7.93;2.00;;;8.40;99.90;;;;;;5023943;28;20478;-48
2023/01/31 10:45:19;;;;;;;3.97;1.27;;;8.40;99.90;;;;;;5023992;28;20057;-47
2023/01/31 10:47:58;;;;;;;23.02;3.03;;;8.50;99.90;;;;;;5024587;28;20095;-49
2023/01/31 10:50:50;;;;;;;15.20;2.78;;;8.60;99.90;;;;;;5034515;28;20023;-40
2023/01/31 10:53:38;;;;;;;10.00;2.00;;;8.70;99.90;;;;;;5020095;28;20109;-41
2023/01/31 10:56:18;;;;;;;10.23;3.42;;;8.70;99.90;;;;;;5022507;28;20482;-38
2023/01/31 10:58:45;;;;;;;12.02;2.90;;;8.70;99.90;;;;;;5018972;28;20049;-41
2023/01/31 11:01:13;;;;;;;10.15;2.50;;;8.70;99.90;;;;;;5014998;28;20041;-40
2023/01/31 11:03:49;;;;;;;9.55;2.78;;;8.60;99.90;;;;;;5015130;28;20506;-39
2023/01/31 11:06:16;;;;;;;11.25;1.85;;;8.60;99.90;;;;;;5027771;28;20431;-38
2023/01/31 11:08:47;;;;;;;17.52;2.72;;;8.50;99.90;;;;;;5025275;28;20049;-41
2023/01/31 11:11:18;;;;;;;17.50;2.72;;;8.50;99.90;;;;;;5016165;28;20496;-42
2023/01/31 11:14:02;;;;;;;8.20;3.22;;;8.40;99.90;;;;;;5024651;28;20466;-41
2023/01/31 11:16:31;;;;;;;15.85;2.83;;;8.40;99.90;;;;;;5030694;28;20516;-36
2023/01/31 11:19:00;;;;;;;9.63;2.60;;;8.40;99.90;;;;;;5026039;28;20356;-40
2023/01/31 11:21:29;;;;;;;8.70;2.17;;;8.40;99.90;;;;;;5033123;28;20477;-37
2023/01/31 11:24:05;;;;;;;16.42;2.17;;;8.40;99.90;;;;;;5028958;28;20513;-41
2023/01/31 11:26:37;;;;;;;22.88;3.20;;;8.50;99.90;;;;;;5030256;28;20026;-40
2023/01/31 11:29:09;;;;;;;12.25;3.30;;;8.50;99.90;;;;;;5017492;28;20063;-39
2023/01/31 11:34:29;;;;;;;9.82;1.85;;;8.50;99.90;;;;;;5026964;28;20088;-46
2023/01/31 11:37:13;;;;;;;17.15;2.35;;;8.60;99.90;;;;;;5025248;28;20080;-38
2023/01/31 11:39:38;;;;;;;17.00;2.97;;;8.50;99.90;;;;;;5024640;28;20033;-35
2023/01/31 11:42:24;;;;;;;12.10;2.60;;;8.60;99.90;;;;;;5026072;28;20553;-48
2023/01/31 11:44:56;;;;;;;15.73;2.22;;;8.60;99.90;;;;;;5032460;28;20056;-47
2023/01/31 11:47:30;;;;;;;16.92;3.55;;;8.70;99.90;;;;;;5018564;28;20042;-43
2023/01/31 11:49:56;;;;;;;18.10;2.33;;;8.70;99.90;;;;;;5034176;28;20092;-45
2023/01/31 11:52:33;;;;;;;13.32;2.58;;;8.70;99.90;;;;;;5020004;28;20144;-35
2023/01/31 11:55:07;;;;;;;22.60;3.55;;;8.60;99.90;;;;;;5017078;28;20490;-41
2023/01/31 11:57:35;;;;;;;22.67;4.07;;;8.60;99.90;;;;;;5025389;28;20108;-42
2023/01/31 12:00:07;;;;;;;12.40;1.92;;;8.60;99.90;;;;;;5030569;28;20025;-51
2023/01/31 12:02:38;;;;;;;18.85;3.05;;;8.60;99.90;;;;;;5018305;28;20049;-42
2023/01/31 12:05:13;;;;;;;16.02;2.13;;;8.60;99.90;;;;;;5028382;28;20033;-45
2023/01/31 12:07:45;;;;;;;10.65;3.03;;;8.70;99.90;;;;;;5017671;28;20071;-42
2023/01/31 12:10:26;;;;;;;13.55;1.45;;;8.80;99.90;;;;;;5026881;28;20037;-46
2023/01/31 12:12:52;;;;;;;8.90;2.05;;;8.80;99.90;;;;;;5025108;28;20033;-40
2023/01/31 12:15:17;;;;;;;11.18;2.15;;;8.90;99.90;;;;;;5025450;28;20043;-41
2023/01/31 12:17:46;;;;;;;8.68;2.17;;;9.00;99.90;;;;;;5027809;28;20374;-42
2023/01/31 12:20:54;;;;;;;10.23;1.80;;;8.90;99.90;;;;;;5024535;28;20022;-43
2023/01/31 12:23:32;;;;;;;10.45;1.75;;;9.00;99.90;;;;;;5030545;28;20034;-40
2023/01/31 12:26:10;;;;;;;16.00;2.35;;;9.00;99.90;;;;;;5029245;28;20494;-39
2023/01/31 12:28:52;;;;;;;20.33;1.85;;;9.10;99.90;;;;;;5029488;28;20489;-39
2023/01/31 12:31:36;;;;;;;11.55;2.45;;;9.10;99.90;;;;;;5019554;28;20501;-40
2023/01/31 12:34:36;;;;;;;8.13;2.20;;;9.20;99.90;;;;;;5028518;28;20083;-39
2023/01/31 12:37:24;;;;;;;17.83;2.42;;;9.30;99.90;;;;;;5027916;28;20026;-39
2023/01/31 12:39:56;;;;;;;12.55;2.25;;;9.30;99.90;;;;;;5016629;28;20029;-35
2023/01/31 12:42:46;;;;;;;16.23;3.38;;;9.40;99.90;;;;;;5015904;28;20505;-40
2023/01/31 12:45:37;;;;;;;15.23;2.17;;;9.50;99.90;;;;;;5013607;28;20422;-38
2023/01/31 12:48:12;;;;;;;8.70;2.30;;;9.50;99.90;;;;;;5014915;28;20018;-40
2023/01/31 12:50:52;;;;;;;12.07;1.95;;;9.60;99.90;;;;;;5013271;28;20030;-40
2023/01/31 12:53:36;;;;;;;24.02;2.45;;;9.60;99.90;;;;;;5013243;28;20045;-41
2023/01/31 12:56:37;;;;;;;9.88;2.10;;;9.70;99.90;;;;;;5018551;28;20025;-39
2023/01/31 12:59:30;;;;;;;17.02;1.88;;;9.60;99.90;;;;;;5030785;28;20025;-39
2023/01/31 13:02:25;;;;;;;16.30;2.70;;;9.40;99.90;;;;;;5020270;28;20582;-40
2023/01/31 13:05:23;;;;;;;11.55;3.95;;;9.40;99.90;;;;;;5033069;28;20029;-46
2023/01/31 13:07:55;;;;;;;9.65;2.35;;;9.50;99.90;;;;;;5032694;28;20481;-48
2023/01/31 13:10:35;;;;;;;14.50;3.60;;;9.60;99.90;;;;;;5042032;28;20028;-44
2023/01/31 13:13:03;;;;;;;10.60;1.83;;;9.60;99.90;;;;;;5026628;28;20144;-53
2023/01/31 13:15:50;;;;;;;16.63;3.25;;;9.70;99.90;;;;;;5013132;28;20482;-47
2023/01/31 13:18:16;;;;;;;13.63;2.42;;;9.70;99.90;;;;;;5026290;28;20048;-40
2023/01/31 13:20:55;;;;;;;9.73;1.63;;;9.80;99.90;;;;;;5014395;28;20036;-42
2023/01/31 13:23:31;;;;;;;13.27;1.95;;;9.70;99.90;;;;;;5026346;28;20034;-45